Sturgills, North Carolina
Current Conditions -  °F | °C
As of 7:15 AM on Sunday 23 Nov 2014 (Local Time) from KGEV Reporting Station
Overcast Overcast  
Wind Chill: 45°   Ceiling: 800
Heat Index: 45°   Visibility: 10mi
Dew Point: 41°   Wind: 0mph
Humidity: 86%   Direction: NA
Pressure: 30.19"   Gusts: NA
Location:  36.524°N, 81.538°W
Report Text: KGEV 231215Z AUTO 00000KT 10SM OVC008 07/05 A3019 RMK AO2 T00730051
Loading
Personal Weather Stations






























Interactive Weather Map New forecast layout! Learn more

10-Day Weather Forecast

Advertisements
Track Severe Weather on mobile